Time;durP1;ratioP1;P1;durP2;ratioP2;P2;SDS_P1;SDS_P2;PMS_P1;PMS_P2;Temp;Humidity;BMP_temperature;BMP_pressure;BME280_temperature;BME280_humidity;BME280_pressure;Samples;Min_cycle;Max_cycle;Signal;HPM_P1;HPM_P2
2022/09/03 00:01:49;;;;;;;13.67;4.20;;;;;;;;;;6208487;28;20136;-53
2022/09/03 00:05:04;;;;;;;14.70;4.35;;;;;;;;;;6204947;28;20056;-52
2022/09/03 00:08:24;;;;;;;12.77;4.78;;;;;;;;;;6205802;28;20048;-54
2022/09/03 00:11:34;;;;;;;12.60;5.55;;;;;;;;;;6205375;28;20050;-53
2022/09/03 00:14:48;;;;;;;11.13;4.43;;;;;;;;;;6207299;28;20067;-51
2022/09/03 00:18:04;;;;;;;11.27;4.13;;;;;;;;;;6208046;28;20042;-52
2022/09/03 00:21:20;;;;;;;13.43;5.40;;;;;;;;;;6208169;28;20061;-52
2022/09/03 00:24:23;;;;;;;14.18;4.47;;;;;;;;;;6207823;28;20163;-55
2022/09/03 00:27:26;;;;;;;22.13;6.57;;;;;;;;;;6208490;28;20132;-54
2022/09/03 00:30:29;;;;;;;20.77;7.03;;;;;;;;;;6206971;28;20045;-54
2022/09/03 00:33:31;;;;;;;17.08;5.80;;;;;;;;;;6208542;28;20148;-54
2022/09/03 00:36:41;;;;;;;20.50;5.63;;;;;;;;;;6206947;28;20057;-52
2022/09/03 00:39:43;;;;;;;17.15;5.60;;;;;;;;;;6206277;28;20524;-55
2022/09/03 00:43:03;;;;;;;19.48;5.57;;;;;;;;;;6207124;28;20057;-54
2022/09/03 00:46:23;;;;;;;16.98;5.43;;;;;;;;;;6208042;28;20056;-52
2022/09/03 00:49:38;;;;;;;15.27;5.07;;;;;;;;;;6207853;28;20767;-54
2022/09/03 00:52:51;;;;;;;16.65;5.88;;;;;;;;;;6185543;28;20050;-52
2022/09/03 00:55:59;;;;;;;21.70;6.47;;;;;;;;;;6208152;28;20042;-56
2022/09/03 00:59:28;;;;;;;14.07;4.97;;;;;;;;;;6206976;28;20073;-55
2022/09/03 01:02:51;;;;;;;18.75;6.63;;;;;;;;;;6207436;28;20060;-54
2022/09/03 01:06:07;;;;;;;14.70;5.35;;;;;;;;;;6204976;28;20053;-53
2022/09/03 01:09:37;;;;;;;14.38;4.82;;;;;;;;;;6208473;28;20054;-51
2022/09/03 01:13:08;;;;;;;16.55;5.00;;;;;;;;;;6206690;28;20050;-52
2022/09/03 01:16:21;;;;;;;17.98;4.97;;;;;;;;;;6203618;28;20496;-54
2022/09/03 01:19:53;;;;;;;13.85;5.20;;;;;;;;;;6213173;28;20053;-50
2022/09/03 01:23:05;;;;;;;17.73;4.70;;;;;;;;;;6214489;28;20056;-53
2022/09/03 01:26:15;;;;;;;18.83;5.35;;;;;;;;;;6204062;28;20145;-56
2022/09/03 01:29:37;;;;;;;15.57;5.30;;;;;;;;;;6212738;28;20061;-54
2022/09/03 01:33:06;;;;;;;16.52;5.25;;;;;;;;;;6207699;28;20173;-55
2022/09/03 01:36:21;;;;;;;13.90;4.70;;;;;;;;;;6206977;28;20136;-54
2022/09/03 01:39:33;;;;;;;15.13;4.90;;;;;;;;;;6207428;28;20049;-55
2022/09/03 01:42:37;;;;;;;11.73;6.10;;;;;;;;;;6206650;28;20468;-55
2022/09/03 01:45:53;;;;;;;14.18;5.47;;;;;;;;;;6205549;28;20049;-56
2022/09/03 01:49:25;;;;;;;16.58;6.20;;;;;;;;;;6206350;28;20073;-55
2022/09/03 01:52:42;;;;;;;15.03;5.40;;;;;;;;;;6206900;28;20042;-53
2022/09/03 01:55:49;;;;;;;13.10;5.07;;;;;;;;;;6205831;28;21234;-52
2022/09/03 01:59:08;;;;;;;17.98;5.38;;;;;;;;;;6207201;28;20057;-51
2022/09/03 02:02:20;;;;;;;16.73;6.20;;;;;;;;;;6206787;28;20944;-54
2022/09/03 02:05:24;;;;;;;15.60;4.80;;;;;;;;;;6208792;28;20045;-55
2022/09/03 02:08:24;;;;;;;13.93;5.25;;;;;;;;;;6210844;28;20038;-52
2022/09/03 02:11:25;;;;;;;14.90;5.18;;;;;;;;;;6211215;28;20092;-54
2022/09/03 02:14:27;;;;;;;16.90;4.88;;;;;;;;;;6212426;28;20053;-54
2022/09/03 02:17:28;;;;;;;11.63;4.93;;;;;;;;;;6211229;28;20064;-51
2022/09/03 02:20:29;;;;;;;17.60;6.15;;;;;;;;;;6212407;28;20049;-50
2022/09/03 02:23:29;;;;;;;14.60;4.93;;;;;;;;;;6210207;28;20175;-55
2022/09/03 02:26:30;;;;;;;19.02;5.00;;;;;;;;;;6212869;28;20046;-51
2022/09/03 02:29:31;;;;;;;13.55;5.10;;;;;;;;;;6209570;28;20104;-51
2022/09/03 02:32:32;;;;;;;20.80;6.13;;;;;;;;;;6211404;28;20461;-50
2022/09/03 02:35:33;;;;;;;20.65;5.80;;;;;;;;;;6210270;28;20049;-54
2022/09/03 02:38:34;;;;;;;12.65;5.40;;;;;;;;;;6212118;28;20061;-53
2022/09/03 02:41:35;;;;;;;19.15;5.70;;;;;;;;;;6209644;28;20046;-52
2022/09/03 02:44:40;;;;;;;18.35;5.45;;;;;;;;;;6209254;28;20076;-52
2022/09/03 02:47:43;;;;;;;17.98;5.78;;;;;;;;;;6212362;28;20056;-54
2022/09/03 02:50:44;;;;;;;15.65;5.35;;;;;;;;;;6210127;28;20053;-54
2022/09/03 02:53:45;;;;;;;19.58;6.00;;;;;;;;;;6209332;28;20041;-54
2022/09/03 02:56:47;;;;;;;17.00;5.35;;;;;;;;;;6210106;28;20408;-50
2022/09/03 02:59:47;;;;;;;14.63;5.20;;;;;;;;;;6209595;28;20050;-52
2022/09/03 03:02:48;;;;;;;17.00;6.10;;;;;;;;;;6209338;28;20042;-51
2022/09/03 03:05:52;;;;;;;15.33;5.57;;;;;;;;;;6203584;28;20046;-53
2022/09/03 03:08:56;;;;;;;18.48;5.57;;;;;;;;;;6209169;28;20310;-51
2022/09/03 03:11:57;;;;;;;18.05;5.30;;;;;;;;;;6210062;28;20153;-53
2022/09/03 03:14:57;;;;;;;15.40;5.75;;;;;;;;;;6207351;28;20714;-51
2022/09/03 03:17:58;;;;;;;18.33;5.75;;;;;;;;;;6206355;28;20447;-51
2022/09/03 03:21:06;;;;;;;15.35;5.78;;;;;;;;;;6215353;28;20042;-51
2022/09/03 03:24:07;;;;;;;13.48;5.45;;;;;;;;;;6209594;28;20145;-53
2022/09/03 03:27:09;;;;;;;14.90;7.22;;;;;;;;;;6209359;28;20041;-51
2022/09/03 03:30:11;;;;;;;21.80;5.85;;;;;;;;;;6209082;28;20128;-50
2022/09/03 03:33:12;;;;;;;12.65;5.80;;;;;;;;;;6209466;28;20543;-53
2022/09/03 03:36:14;;;;;;;15.50;5.60;;;;;;;;;;6209605;28;20045;-51
2022/09/03 03:39:15;;;;;;;15.07;6.35;;;;;;;;;;6211462;28;20076;-51
2022/09/03 03:42:15;;;;;;;20.63;7.38;;;;;;;;;;6207998;28;20053;-52
2022/09/03 03:45:16;;;;;;;13.55;5.90;;;;;;;;;;6211291;28;20050;-52
2022/09/03 03:48:17;;;;;;;14.85;6.18;;;;;;;;;;6208601;28;20111;-52
2022/09/03 03:51:18;;;;;;;13.55;5.25;;;;;;;;;;6208204;28;20099;-52
2022/09/03 03:54:18;;;;;;;17.60;6.33;;;;;;;;;;6207327;28;20563;-54
2022/09/03 03:57:20;;;;;;;15.55;6.72;;;;;;;;;;6206689;28;20050;-51
2022/09/03 04:00:21;;;;;;;13.60;6.05;;;;;;;;;;6207260;28;20587;-52
2022/09/03 04:03:21;;;;;;;13.93;5.57;;;;;;;;;;6211798;28;20053;-52
2022/09/03 04:06:22;;;;;;;13.23;6.05;;;;;;;;;;6208582;28;20211;-51
2022/09/03 04:09:23;;;;;;;19.92;6.80;;;;;;;;;;6207549;28;20100;-51
2022/09/03 04:12:23;;;;;;;20.25;5.72;;;;;;;;;;6207061;28;20134;-53
2022/09/03 04:15:24;;;;;;;17.08;5.93;;;;;;;;;;6208483;28;20061;-51
2022/09/03 04:18:24;;;;;;;14.68;5.88;;;;;;;;;;6208017;28;20468;-51
2022/09/03 04:21:27;;;;;;;26.63;6.55;;;;;;;;;;6205221;28;20065;-51
2022/09/03 04:24:28;;;;;;;21.52;6.45;;;;;;;;;;6206887;28;20050;-51
2022/09/03 04:27:30;;;;;;;20.58;6.72;;;;;;;;;;6210450;28;20732;-52
2022/09/03 04:30:30;;;;;;;18.37;5.97;;;;;;;;;;6206330;28;20064;-53
2022/09/03 04:33:32;;;;;;;14.93;6.68;;;;;;;;;;6206539;28;20042;-52
2022/09/03 04:36:33;;;;;;;16.80;6.53;;;;;;;;;;6192012;28;20140;-51
2022/09/03 04:39:34;;;;;;;16.33;6.38;;;;;;;;;;6207048;28;20042;-51
2022/09/03 04:42:34;;;;;;;18.88;6.68;;;;;;;;;;6207202;28;20092;-50
2022/09/03 04:45:35;;;;;;;18.45;6.93;;;;;;;;;;6205604;28;20183;-54
2022/09/03 04:48:36;;;;;;;20.83;6.55;;;;;;;;;;6209583;28;20489;-53
2022/09/03 04:51:38;;;;;;;20.25;7.20;;;;;;;;;;6191037;28;20054;-56
2022/09/03 04:54:39;;;;;;;18.55;6.47;;;;;;;;;;6180698;28;20594;-51
2022/09/03 04:57:41;;;;;;;17.17;7.10;;;;;;;;;;6182371;28;20042;-52
2022/09/03 05:00:42;;;;;;;16.98;7.38;;;;;;;;;;6184274;28;20571;-52
2022/09/03 05:03:43;;;;;;;16.48;7.15;;;;;;;;;;6195822;28;20294;-54
2022/09/03 05:06:45;;;;;;;19.92;7.88;;;;;;;;;;6184238;28;20409;-52
2022/09/03 05:09:46;;;;;;;26.20;7.35;;;;;;;;;;6182940;28;20046;-55
2022/09/03 05:12:48;;;;;;;17.73;7.10;;;;;;;;;;6185082;28;20130;-50
2022/09/03 05:15:49;;;;;;;15.88;7.00;;;;;;;;;;6183815;28;20637;-51
2022/09/03 05:18:54;;;;;;;15.73;6.68;;;;;;;;;;6182672;28;20050;-53
2022/09/03 05:21:55;;;;;;;20.40;7.15;;;;;;;;;;6180300;28;20053;-55
2022/09/03 05:24:55;;;;;;;23.38;7.22;;;;;;;;;;6181790;28;20436;-52
2022/09/03 05:27:57;;;;;;;16.95;7.32;;;;;;;;;;6184251;28;20377;-50
2022/09/03 05:31:10;;;;;;;19.50;7.40;;;;;;;;;;6180390;28;20053;-55
2022/09/03 05:34:11;;;;;;;19.48;7.35;;;;;;;;;;6187589;28;20043;-51
2022/09/03 05:37:11;;;;;;;15.35;6.97;;;;;;;;;;6188069;28;20089;-53
2022/09/03 05:40:12;;;;;;;17.88;8.48;;;;;;;;;;6186605;28;20065;-54
2022/09/03 05:43:12;;;;;;;17.23;7.20;;;;;;;;;;6187906;28;20235;-52
2022/09/03 05:46:17;;;;;;;20.45;7.28;;;;;;;;;;6189195;28;20741;-55
2022/09/03 05:49:18;;;;;;;21.30;8.35;;;;;;;;;;6193126;28;20138;-53
2022/09/03 05:52:20;;;;;;;18.23;7.22;;;;;;;;;;6195698;28;20509;-51
2022/09/03 05:55:21;;;;;;;17.95;7.50;;;;;;;;;;6194891;28;20078;-53
2022/09/03 05:58:21;;;;;;;76.28;16.42;;;;;;;;;;6195949;28;20050;-55
2022/09/03 06:01:23;;;;;;;23.85;8.82;;;;;;;;;;6195379;28;20042;-56
2022/09/03 06:04:23;;;;;;;21.10;8.07;;;;;;;;;;6195095;28;20044;-51
2022/09/03 06:07:26;;;;;;;48.13;20.58;;;;;;;;;;6195261;28;20046;-51
2022/09/03 06:10:26;;;;;;;22.02;9.00;;;;;;;;;;6194649;28;20100;-51
2022/09/03 06:13:28;;;;;;;26.00;10.73;;;;;;;;;;6195372;28;20587;-53
2022/09/03 06:16:30;;;;;;;27.52;10.65;;;;;;;;;;6192612;28;20050;-55
2022/09/03 06:19:30;;;;;;;25.00;10.27;;;;;;;;;;6193559;28;20136;-54
2022/09/03 06:22:31;;;;;;;23.20;9.20;;;;;;;;;;6195091;28;20054;-53
2022/09/03 06:25:32;;;;;;;33.15;11.13;;;;;;;;;;6201039;28;20054;-58
2022/09/03 06:28:34;;;;;;;35.40;10.07;;;;;;;;;;6196530;28;20046;-51
2022/09/03 06:31:35;;;;;;;22.92;9.38;;;;;;;;;;6194871;28;20050;-56
2022/09/03 06:34:36;;;;;;;25.05;8.48;;;;;;;;;;6194660;28;20101;-51
2022/09/03 06:37:40;;;;;;;55.92;12.93;;;;;;;;;;6194854;28;20049;-59
2022/09/03 06:40:41;;;;;;;28.10;9.40;;;;;;;;;;6194344;28;20041;-51
2022/09/03 06:43:42;;;;;;;19.25;8.80;;;;;;;;;;6194797;28;20042;-61
2022/09/03 06:46:42;;;;;;;38.80;10.55;;;;;;;;;;6193162;28;20137;-58
2022/09/03 06:49:43;;;;;;;15.35;8.15;;;;;;;;;;6193949;28;20058;-56
2022/09/03 06:52:44;;;;;;;18.85;8.60;;;;;;;;;;6194457;28;20039;-58
2022/09/03 06:55:52;;;;;;;25.85;10.43;;;;;;;;;;6193974;28;20221;-60
2022/09/03 06:59:13;;;;;;;35.85;12.80;;;;;;;;;;6194631;28;20057;-62
2022/09/03 07:02:14;;;;;;;47.33;12.00;;;;;;;;;;6193565;28;20042;-65
2022/09/03 07:05:14;;;;;;;143.82;27.17;;;;;;;;;;6193969;28;20133;-69
2022/09/03 07:08:15;;;;;;;26.23;10.27;;;;;;;;;;6194175;28;20061;-56
2022/09/03 07:11:20;;;;;;;30.73;10.23;;;;;;;;;;6193962;28;20046;-63
2022/09/03 07:14:21;;;;;;;28.33;9.20;;;;;;;;;;6194147;28;20058;-63
2022/09/03 07:17:22;;;;;;;20.10;8.70;;;;;;;;;;6193391;28;20133;-57
2022/09/03 07:20:22;;;;;;;74.60;16.10;;;;;;;;;;6193721;28;20490;-61
2022/09/03 07:23:23;;;;;;;20.38;9.07;;;;;;;;;;6193658;28;20100;-61
2022/09/03 07:26:29;;;;;;;24.40;9.98;;;;;;;;;;6192604;28;20062;-60
2022/09/03 07:29:29;;;;;;;35.47;10.80;;;;;;;;;;6189918;28;20047;-61
2022/09/03 07:32:32;;;;;;;28.02;10.75;;;;;;;;;;6192860;28;20144;-62
2022/09/03 07:35:35;;;;;;;41.38;13.02;;;;;;;;;;6193347;28;20046;-62
2022/09/03 07:38:36;;;;;;;27.00;10.25;;;;;;;;;;6193237;28;20050;-62
2022/09/03 07:41:37;;;;;;;12.73;5.82;;;;;;;;;;6192816;28;20049;-63
2022/09/03 07:44:38;;;;;;;11.15;5.22;;;;;;;;;;6201074;28;20091;-63
2022/09/03 07:47:46;;;;;;;9.45;4.25;;;;;;;;;;6194565;28;20039;-63
2022/09/03 07:50:47;;;;;;;14.50;4.50;;;;;;;;;;6192954;28;20490;-65
2022/09/03 07:53:48;;;;;;;13.20;4.93;;;;;;;;;;6192869;28;20085;-61
2022/09/03 07:56:48;;;;;;;14.65;7.07;;;;;;;;;;6192375;28;20145;-62
2022/09/03 07:59:49;;;;;;;8.50;4.78;;;;;;;;;;6192475;28;20050;-62
2022/09/03 08:02:51;;;;;;;11.57;5.22;;;;;;;;;;6192501;28;20468;-63
2022/09/03 08:05:51;;;;;;;;;;;;;;;;;;6193009;28;20081;-59
2022/09/03 08:08:57;;;;;;;9.82;4.38;;;;;;;;;;6193313;28;19925;-60
2022/09/03 08:11:58;;;;;;;16.90;7.60;;;;;;;;;;6192884;28;20046;-61
2022/09/03 08:14:59;;;;;;;8.15;4.57;;;;;;;;;;6192393;28;20092;-65
2022/09/03 08:18:00;;;;;;;24.38;8.57;;;;;;;;;;6191888;28;20196;-63
2022/09/03 08:21:00;;;;;;;12.63;4.80;;;;;;;;;;6192545;28;20049;-63
2022/09/03 08:24:01;;;;;;;13.43;5.30;;;;;;;;;;6192166;28;20072;-64
2022/09/03 08:27:02;;;;;;;18.17;6.27;;;;;;;;;;6191043;28;21009;-62
2022/09/03 08:30:03;;;;;;;16.77;6.32;;;;;;;;;;6189174;28;20061;-65
2022/09/03 08:33:05;;;;;;;16.73;5.57;;;;;;;;;;6189277;28;20458;-63
2022/09/03 08:36:11;;;;;;;15.23;6.70;;;;;;;;;;6192905;28;20057;-61
2022/09/03 08:39:13;;;;;;;8.20;4.88;;;;;;;;;;6189331;28;20061;-61
2022/09/03 08:42:25;;;;;;;11.05;5.30;;;;;;;;;;6187107;28;20057;-66
2022/09/03 08:45:29;;;;;;;16.95;5.63;;;;;;;;;;6189029;28;20516;-62
2022/09/03 08:48:31;;;;;;;21.60;6.35;;;;;;;;;;6190228;28;20405;-64
2022/09/03 08:51:32;;;;;;;14.20;6.70;;;;;;;;;;6189044;28;20104;-67
2022/09/03 08:54:35;;;;;;;31.23;8.90;;;;;;;;;;6187734;28;20046;-62
2022/09/03 08:57:43;;;;;;;11.55;5.82;;;;;;;;;;6192819;28;20074;-66
2022/09/03 09:01:02;;;;;;;49.30;10.93;;;;;;;;;;6190511;28;20042;-61
2022/09/03 09:04:05;;;;;;;37.70;10.38;;;;;;;;;;6191733;28;20119;-68
2022/09/03 09:07:20;;;;;;;11.38;5.63;;;;;;;;;;6187011;28;20216;-62
2022/09/03 09:10:44;;;;;;;10.95;6.30;;;;;;;;;;6188925;28;20140;-66
2022/09/03 09:13:59;;;;;;;19.25;7.70;;;;;;;;;;6205774;28;20053;-64
2022/09/03 09:17:13;;;;;;;17.73;8.25;;;;;;;;;;6191366;28;20452;-70
2022/09/03 09:20:28;;;;;;;13.80;7.03;;;;;;;;;;6196849;28;20464;-66
2022/09/03 09:23:41;;;;;;;16.10;8.10;;;;;;;;;;6194620;28;20060;-66
2022/09/03 09:26:41;;;;;;;14.60;7.10;;;;;;;;;;6194020;28;20050;-66
2022/09/03 09:29:47;;;;;;;17.70;9.07;;;;;;;;;;6207772;28;20046;-68
2022/09/03 09:32:47;;;;;;;12.52;7.45;;;;;;;;;;6194883;28;20405;-59
2022/09/03 09:35:48;;;;;;;14.27;7.55;;;;;;;;;;6194163;28;20053;-59
2022/09/03 09:38:49;;;;;;;16.38;7.88;;;;;;;;;;6194488;28;20438;-59
2022/09/03 09:41:58;;;;;;;15.30;8.05;;;;;;;;;;6195039;28;20050;-62
2022/09/03 09:45:07;;;;;;;13.82;7.20;;;;;;;;;;6191805;28;20046;-62
2022/09/03 09:48:25;;;;;;;13.10;8.05;;;;;;;;;;6184898;28;20531;-64
2022/09/03 09:51:29;;;;;;;12.82;7.60;;;;;;;;;;6188794;28;20062;-61
2022/09/03 09:54:30;;;;;;;17.23;8.63;;;;;;;;;;6191161;28;20142;-67
2022/09/03 09:57:30;;;;;;;31.95;11.52;;;;;;;;;;6188529;28;20043;-65
2022/09/03 10:00:33;;;;;;;22.92;8.98;;;;;;;;;;6189495;28;20049;-65
2022/09/03 10:03:34;;;;;;;16.58;8.35;;;;;;;;;;6191442;28;20046;-66
2022/09/03 10:06:54;;;;;;;23.75;9.95;;;;;;;;;;6191313;28;20571;-64
2022/09/03 10:10:01;;;;;;;28.05;10.48;;;;;;;;;;6191852;28;20085;-64
2022/09/03 10:13:24;;;;;;;32.63;11.52;;;;;;;;;;6189225;28;20081;-66
2022/09/03 10:16:27;;;;;;;;;;;;;;;;;;6190108;28;20511;-66
2022/09/03 10:20:26;;;;;;;15.05;8.00;;;;;;;;;;6188209;28;19926;-62
2022/09/03 10:23:28;;;;;;;24.35;9.93;;;;;;;;;;6189197;28;20065;-60
2022/09/03 10:26:29;;;;;;;26.83;10.82;;;;;;;;;;6190153;28;20069;-58
2022/09/03 10:29:31;;;;;;;19.73;9.88;;;;;;;;;;6188149;28;20124;-67
2022/09/03 10:33:01;;;;;;;23.23;9.32;;;;;;;;;;6187883;28;20136;-61
2022/09/03 10:36:28;;;;;;;27.55;10.82;;;;;;;;;;6184874;28;20046;-58
2022/09/03 10:39:57;;;;;;;13.52;8.05;;;;;;;;;;6187393;28;20050;-68
2022/09/03 10:43:16;;;;;;;20.02;8.70;;;;;;;;;;6187189;28;20046;-64
2022/09/03 10:46:24;;;;;;;15.35;8.68;;;;;;;;;;6187372;28;20149;-62
2022/09/03 10:50:01;;;;;;;19.67;9.35;;;;;;;;;;6187285;28;20046;-66
2022/09/03 10:53:24;;;;;;;17.10;9.48;;;;;;;;;;6187918;28;20406;-61
2022/09/03 10:56:36;;;;;;;16.90;9.65;;;;;;;;;;6187789;28;20042;-62
2022/09/03 10:59:37;;;;;;;22.45;10.82;;;;;;;;;;6186882;28;20047;-63
2022/09/03 11:03:17;;;;;;;23.13;11.27;;;;;;;;;;6187299;28;20705;-62
2022/09/03 11:06:23;;;;;;;21.15;10.27;;;;;;;;;;6189405;28;20066;-66
2022/09/03 11:09:32;;;;;;;35.42;13.68;;;;;;;;;;6188794;28;20054;-64
2022/09/03 11:12:41;;;;;;;18.40;9.55;;;;;;;;;;6192200;28;20390;-64
2022/09/03 11:16:11;;;;;;;24.05;11.00;;;;;;;;;;6191727;28;20128;-64
2022/09/03 11:19:19;;;;;;;21.40;11.75;;;;;;;;;;6178287;28;20141;-67
2022/09/03 11:22:22;;;;;;;26.92;14.20;;;;;;;;;;6188510;28;20128;-66
2022/09/03 11:25:32;;;;;;;54.85;13.73;;;;;;;;;;6188072;28;20054;-64
2022/09/03 11:29:04;;;;;;;37.15;18.13;;;;;;;;;;6189429;28;20061;-61
2022/09/03 11:32:19;;;;;;;35.28;21.38;;;;;;;;;;6191462;28;20046;-66
2022/09/03 11:35:28;;;;;;;45.35;26.77;;;;;;;;;;6188464;28;20054;-65
2022/09/03 11:38:32;;;;;;;24.25;14.65;;;;;;;;;;6198255;28;20408;-62
2022/09/03 11:41:37;;;;;;;23.30;13.65;;;;;;;;;;6192710;28;20038;-65
2022/09/03 11:44:43;;;;;;;36.60;22.38;;;;;;;;;;6189449;28;20077;-62
2022/09/03 11:47:45;;;;;;;23.67;13.73;;;;;;;;;;6187897;28;20149;-62
2022/09/03 11:50:55;;;;;;;24.48;12.07;;;;;;;;;;6192004;28;20737;-61
2022/09/03 11:54:24;;;;;;;24.25;13.57;;;;;;;;;;6199545;28;20467;-63
2022/09/03 11:57:30;;;;;;;19.23;10.80;;;;;;;;;;6201544;28;20966;-66
2022/09/03 12:00:30;;;;;;;29.60;16.70;;;;;;;;;;6206666;28;20104;-64
2022/09/03 12:03:53;;;;;;;21.02;12.25;;;;;;;;;;6200805;28;20413;-67
2022/09/03 12:07:12;;;;;;;26.25;12.88;;;;;;;;;;6204504;28;20046;-65
2022/09/03 12:10:42;;;;;;;26.95;13.85;;;;;;;;;;6181530;28;20133;-68
2022/09/03 12:13:57;;;;;;;17.10;10.57;;;;;;;;;;6201875;28;20145;-65
2022/09/03 12:17:06;;;;;;;26.80;13.52;;;;;;;;;;6204311;28;20181;-64
2022/09/03 12:20:13;;;;;;;21.83;11.45;;;;;;;;;;6194560;28;20047;-64
2022/09/03 12:23:31;;;;;;;19.00;10.82;;;;;;;;;;6195999;28;20090;-66
2022/09/03 12:26:39;;;;;;;22.40;10.82;;;;;;;;;;6200535;28;20042;-68
2022/09/03 12:29:59;;;;;;;17.48;10.45;;;;;;;;;;6198220;28;20057;-67
2022/09/03 12:33:05;;;;;;;18.85;11.07;;;;;;;;;;6187144;28;20101;-65
2022/09/03 12:36:08;;;;;;;19.63;10.80;;;;;;;;;;6183919;28;20064;-67
2022/09/03 12:39:14;;;;;;;26.48;14.65;;;;;;;;;;6183796;28;20060;-66
2022/09/03 12:42:23;;;;;;;47.72;23.92;;;;;;;;;;6184820;28;20612;-63
2022/09/03 12:45:25;;;;;;;29.13;15.63;;;;;;;;;;6182311;28;20178;-65
2022/09/03 12:48:26;;;;;;;22.33;11.75;;;;;;;;;;6186468;28;20100;-65
2022/09/03 12:51:31;;;;;;;19.20;11.25;;;;;;;;;;6181434;28;20567;-67
2022/09/03 12:54:39;;;;;;;20.80;11.60;;;;;;;;;;6180969;28;20538;-66
2022/09/03 12:57:44;;;;;;;20.88;10.75;;;;;;;;;;6180360;28;21192;-68
2022/09/03 13:01:08;;;;;;;22.45;11.80;;;;;;;;;;6179871;28;20070;-67
2022/09/03 13:04:15;;;;;;;22.52;11.15;;;;;;;;;;6184076;28;20405;-67
2022/09/03 13:07:22;;;;;;;17.02;10.43;;;;;;;;;;6179795;28;20074;-67
2022/09/03 13:10:27;;;;;;;16.70;10.38;;;;;;;;;;6179246;28;20073;-67
2022/09/03 13:13:33;;;;;;;15.88;10.00;;;;;;;;;;6180848;28;20153;-67
2022/09/03 13:16:45;;;;;;;22.40;10.73;;;;;;;;;;6179625;28;20866;-66
2022/09/03 13:20:10;;;;;;;17.80;10.63;;;;;;;;;;6179376;28;20050;-64
2022/09/03 13:23:30;;;;;;;15.88;9.77;;;;;;;;;;6180919;28;20065;-67
2022/09/03 13:26:52;;;;;;;18.35;10.05;;;;;;;;;;6182316;28;20162;-62
2022/09/03 13:30:02;;;;;;;15.98;10.00;;;;;;;;;;6178083;28;20504;-65
2022/09/03 13:33:24;;;;;;;14.60;9.30;;;;;;;;;;6180701;28;20137;-66
2022/09/03 13:36:36;;;;;;;17.38;10.38;;;;;;;;;;6179564;28;20101;-67
2022/09/03 13:39:42;;;;;;;16.55;10.10;;;;;;;;;;6186589;28;20085;-62
2022/09/03 13:42:56;;;;;;;16.42;8.85;;;;;;;;;;6178435;28;20077;-65
2022/09/03 13:46:04;;;;;;;14.20;8.48;;;;;;;;;;6180871;28;20706;-65
2022/09/03 13:52:47;;;;;;;15.00;8.05;;;;;;;;;;6165783;28;20121;-62
2022/09/03 13:56:05;;;;;;;16.00;8.75;;;;;;;;;;6179659;28;20050;-62
2022/09/03 13:59:16;;;;;;;16.58;9.77;;;;;;;;;;6182973;28;20062;-61
2022/09/03 14:02:23;;;;;;;14.75;9.20;;;;;;;;;;6186097;28;20049;-63
2022/09/03 14:06:02;;;;;;;17.88;9.50;;;;;;;;;;6186683;28;20517;-66
2022/09/03 14:09:50;;;;;;;17.35;9.10;;;;;;;;;;6173375;28;20034;-63
2022/09/03 14:13:14;;;;;;;23.02;10.25;;;;;;;;;;6183314;28;20452;-60
2022/09/03 14:16:40;;;;;;;16.85;9.98;;;;;;;;;;6185817;28;20244;-64
2022/09/03 14:19:51;;;;;;;17.63;9.65;;;;;;;;;;6182104;28;20069;-66
2022/09/03 14:23:16;;;;;;;16.30;9.20;;;;;;;;;;6184500;28;20046;-63
2022/09/03 14:26:27;;;;;;;15.10;9.10;;;;;;;;;;6186591;28;20133;-61
2022/09/03 14:29:32;;;;;;;16.98;9.07;;;;;;;;;;6182207;28;20256;-65
2022/09/03 14:32:45;;;;;;;17.02;9.27;;;;;;;;;;6184098;28;20161;-63
2022/09/03 14:36:01;;;;;;;16.48;9.50;;;;;;;;;;6183222;28;20047;-64
2022/09/03 14:39:15;;;;;;;17.45;8.90;;;;;;;;;;6181722;28;20034;-69
2022/09/03 14:42:36;;;;;;;17.58;9.93;;;;;;;;;;6187657;28;20554;-66
2022/09/03 14:46:25;;;;;;;14.80;9.13;;;;;;;;;;6188995;28;20089;-67
2022/09/03 14:49:50;;;;;;;15.30;9.48;;;;;;;;;;6146760;28;20058;-66
2022/09/03 14:53:13;;;;;;;16.65;9.43;;;;;;;;;;6187754;28;20141;-63
2022/09/03 14:56:37;;;;;;;14.43;9.10;;;;;;;;;;6185546;28;20423;-60
2022/09/03 15:00:05;;;;;;;14.93;9.32;;;;;;;;;;6181481;28;20042;-60
2022/09/03 15:03:20;;;;;;;14.43;9.40;;;;;;;;;;6182842;28;20057;-65
2022/09/03 15:06:24;;;;;;;17.85;9.52;;;;;;;;;;6183445;28;20050;-61
2022/09/03 15:09:30;;;;;;;17.17;9.23;;;;;;;;;;6181557;28;20046;-63
2022/09/03 15:12:44;;;;;;;20.90;10.18;;;;;;;;;;6185435;28;20046;-61
2022/09/03 15:16:11;;;;;;;18.35;11.20;;;;;;;;;;6181591;28;20753;-60
2022/09/03 15:19:26;;;;;;;20.35;10.00;;;;;;;;;;6181899;28;20056;-66
2022/09/03 15:22:39;;;;;;;16.50;9.77;;;;;;;;;;6182680;28;20039;-63
2022/09/03 15:25:42;;;;;;;15.70;9.48;;;;;;;;;;6179488;28;20064;-66
2022/09/03 15:29:01;;;;;;;16.45;9.55;;;;;;;;;;6180709;28;20109;-65
2022/09/03 15:32:40;;;;;;;16.02;9.88;;;;;;;;;;6184404;28;21316;-63
2022/09/03 15:36:17;;;;;;;14.65;9.10;;;;;;;;;;6184303;28;20100;-65
2022/09/03 15:39:32;;;;;;;17.33;9.20;;;;;;;;;;6179390;28;20504;-63
2022/09/03 15:42:35;;;;;;;16.83;9.68;;;;;;;;;;6183508;28;20058;-67
2022/09/03 15:45:45;;;;;;;18.58;10.25;;;;;;;;;;6183367;28;20378;-65
2022/09/03 15:49:21;;;;;;;22.10;11.20;;;;;;;;;;6183436;28;20489;-67
2022/09/03 15:52:30;;;;;;;24.52;12.00;;;;;;;;;;6181665;28;20057;-66
2022/09/03 15:55:35;;;;;;;24.80;11.80;;;;;;;;;;6182343;28;21588;-68
2022/09/03 15:58:44;;;;;;;27.00;13.38;;;;;;;;;;6180960;28;20141;-68
2022/09/03 16:02:02;;;;;;;26.15;11.60;;;;;;;;;;6181742;28;20576;-68
2022/09/03 16:05:13;;;;;;;15.15;9.45;;;;;;;;;;6183992;28;20046;-66
2022/09/03 16:08:13;;;;;;;21.27;10.82;;;;;;;;;;6181803;28;20050;-66
2022/09/03 16:11:29;;;;;;;23.93;10.63;;;;;;;;;;6184044;28;20486;-65
2022/09/03 16:14:36;;;;;;;18.50;10.13;;;;;;;;;;6182787;28;20050;-68
2022/09/03 16:17:43;;;;;;;20.38;11.00;;;;;;;;;;6180658;28;20715;-65
2022/09/03 16:20:53;;;;;;;20.73;10.82;;;;;;;;;;6180074;28;20096;-63
2022/09/03 16:24:15;;;;;;;17.77;10.82;;;;;;;;;;6183784;28;20136;-65
2022/09/03 16:27:21;;;;;;;27.35;14.07;;;;;;;;;;6179411;28;20096;-65
2022/09/03 16:30:43;;;;;;;22.42;11.88;;;;;;;;;;6182538;28;20684;-63
2022/09/03 16:34:19;;;;;;;22.48;12.23;;;;;;;;;;6180806;28;20149;-65
2022/09/03 16:37:44;;;;;;;23.08;11.27;;;;;;;;;;6181184;28;20535;-60
2022/09/03 16:40:56;;;;;;;20.02;11.70;;;;;;;;;;6182383;28;20083;-64
2022/09/03 16:44:22;;;;;;;28.27;12.02;;;;;;;;;;6184190;28;20054;-66
2022/09/03 16:47:31;;;;;;;26.48;12.02;;;;;;;;;;6181963;28;20038;-62
2022/09/03 16:50:47;;;;;;;26.80;12.43;;;;;;;;;;6182070;28;20070;-64
2022/09/03 16:54:17;;;;;;;19.80;11.15;;;;;;;;;;6183645;28;20167;-62
2022/09/03 16:57:53;;;;;;;23.02;11.25;;;;;;;;;;6180675;28;20082;-62
2022/09/03 17:01:11;;;;;;;17.27;10.95;;;;;;;;;;6183876;28;20058;-63
2022/09/03 17:04:32;;;;;;;20.30;11.80;;;;;;;;;;6182881;28;20525;-62
2022/09/03 17:07:34;;;;;;;21.00;11.50;;;;;;;;;;6179259;28;20054;-63
2022/09/03 17:11:06;;;;;;;27.00;12.43;;;;;;;;;;6182011;28;20042;-61
2022/09/03 17:14:34;;;;;;;34.88;16.90;;;;;;;;;;6180296;28;20432;-63
2022/09/03 17:18:07;;;;;;;35.00;18.00;;;;;;;;;;6176153;28;20792;-66
2022/09/03 17:21:23;;;;;;;22.60;13.75;;;;;;;;;;6193493;28;20074;-59
2022/09/03 17:24:35;;;;;;;26.10;14.18;;;;;;;;;;6188880;28;20416;-60
2022/09/03 17:27:55;;;;;;;23.50;13.07;;;;;;;;;;6184169;28;20406;-64
2022/09/03 17:30:56;;;;;;;24.05;13.20;;;;;;;;;;6187267;28;20050;-61
2022/09/03 17:34:06;;;;;;;23.58;15.10;;;;;;;;;;6192363;28;20050;-61
2022/09/03 17:37:31;;;;;;;26.35;14.60;;;;;;;;;;6198154;28;20146;-63
2022/09/03 17:41:09;;;;;;;25.77;13.95;;;;;;;;;;6188175;28;20069;-60
2022/09/03 17:44:19;;;;;;;23.33;14.35;;;;;;;;;;6187716;28;20141;-63
2022/09/03 17:47:40;;;;;;;23.67;13.88;;;;;;;;;;6185014;28;20915;-60
2022/09/03 17:50:54;;;;;;;25.40;13.80;;;;;;;;;;6184251;28;20197;-63
2022/09/03 17:54:34;;;;;;;24.75;14.40;;;;;;;;;;6186178;28;20452;-66
2022/09/03 17:57:44;;;;;;;26.73;14.68;;;;;;;;;;6183352;28;20564;-66
2022/09/03 18:00:51;;;;;;;30.80;14.77;;;;;;;;;;6187433;28;20405;-66
2022/09/03 18:03:59;;;;;;;31.52;15.07;;;;;;;;;;6192573;28;20689;-60
2022/09/03 18:07:09;;;;;;;30.55;15.15;;;;;;;;;;6191964;28;20126;-61
2022/09/03 18:10:36;;;;;;;30.50;15.68;;;;;;;;;;6189798;28;21071;-64
2022/09/03 18:13:58;;;;;;;28.10;15.00;;;;;;;;;;6180483;28;20054;-62
2022/09/03 18:17:08;;;;;;;26.40;14.25;;;;;;;;;;6177833;28;20120;-65
2022/09/03 20:10:33;;;;;;;33.75;15.82;;;;;;;;;;6184355;28;20050;-60
2022/09/03 20:14:11;;;;;;;32.35;16.15;;;;;;;;;;6183293;28;20042;-60
2022/09/03 20:17:29;;;;;;;43.22;18.85;;;;;;;;;;6182974;28;20050;-58
2022/09/03 20:21:05;;;;;;;40.78;20.17;;;;;;;;;;6182703;28;20077;-60
2022/09/03 20:24:27;;;;;;;44.63;21.05;;;;;;;;;;6183934;28;20030;-62
2022/09/03 20:27:37;;;;;;;36.55;18.33;;;;;;;;;;6185807;28;20053;-61
2022/09/03 20:31:05;;;;;;;26.33;14.82;;;;;;;;;;6183588;28;20164;-62